Time;durP1;ratioP1;P1;durP2;ratioP2;P2;SDS_P1;SDS_P2;PMS_P1;PMS_P2;Temp;Humidity;BMP_temperature;BMP_pressure;BME280_temperature;BME280_humidity;BME280_pressure;Samples;Min_cycle;Max_cycle;Signal;HPM_P1;HPM_P2
2021/09/24 00:03:10;;;;;;;10.50;4.07;;;16.40;99.90;;;;;;6740565;88;20190;-86
2021/09/24 02:03:51;;;;;;;10.48;4.95;;;16.30;99.90;;;;;;7631519;77;21151;31
2021/09/24 05:35:07;;;;;;;7.75;5.03;;;16.00;99.90;;;;;;6732827;88;20212;-76
2021/09/24 05:45:11;;;;;;;6.95;4.60;;;15.90;99.90;;;;;;6726603;88;20697;-77
2021/09/24 05:55:14;;;;;;;6.22;4.03;;;15.90;99.90;;;;;;6715987;88;20664;-77
2021/09/24 06:05:15;;;;;;;8.77;4.20;;;15.80;99.90;;;;;;6718530;88;20230;-78
2021/09/24 06:15:19;;;;;;;9.75;4.07;;;15.80;99.90;;;;;;6718738;88;20306;-76
2021/09/24 06:25:20;;;;;;;5.15;3.45;;;15.90;99.90;;;;;;6717447;88;20259;-76
2021/09/24 06:35:22;;;;;;;5.35;3.10;;;16.00;99.90;;;;;;6719486;88;20210;-79
2021/09/24 06:45:23;;;;;;;8.13;3.70;;;15.90;99.90;;;;;;6718328;88;20199;-76
2021/09/24 06:55:25;;;;;;;6.40;3.53;;;15.90;99.90;;;;;;6717678;88;20213;-79
2021/09/24 07:05:26;;;;;;;6.65;3.50;;;16.10;99.90;;;;;;6721316;88;20199;-79
2021/09/24 07:15:26;;;;;;;8.87;4.60;;;16.30;99.90;;;;;;6721544;88;21098;-79
2021/09/24 07:25:27;;;;;;;8.07;4.10;;;16.40;99.90;;;;;;6718793;88;20276;-78
2021/09/24 07:35:27;;;;;;;8.98;3.10;;;16.80;99.90;;;;;;6718493;88;20221;-78
2021/09/24 07:45:28;;;;;;;4.87;2.65;;;17.60;99.90;;;;;;6718224;88;20193;-78
2021/09/24 07:55:29;;;;;;;4.93;2.55;;;18.50;99.90;;;;;;6718728;88;20198;-80
2021/09/24 08:05:31;;;;;;;4.72;2.42;;;19.20;99.90;;;;;;6720083;88;20225;-78
2021/09/24 08:15:33;;;;;;;5.80;2.50;;;19.80;99.90;;;;;;6719856;88;20583;-78
2021/09/24 08:25:33;;;;;;;4.32;2.67;;;20.30;99.90;;;;;;6719875;88;20203;-78
2021/09/24 08:35:34;;;;;;;4.55;2.50;;;21.00;99.90;;;;;;6719117;88;20215;-78
2021/09/24 08:45:34;;;;;;;4.10;2.40;;;21.70;99.90;;;;;;6727398;88;21105;-78
2021/09/24 08:55:35;;;;;;;4.50;2.20;;;22.20;99.90;;;;;;6733742;88;20322;-77
2021/09/24 09:05:38;;;;;;;5.70;2.85;;;22.90;99.90;;;;;;6734773;88;21003;-77
2021/09/24 09:15:39;;;;;;;4.18;2.78;;;22.30;99.90;;;;;;6738538;88;20603;-78
2021/09/24 09:25:43;;;;;;;6.70;2.42;;;23.20;99.90;;;;;;6733058;88;20222;-78
2021/09/24 09:35:51;;;;;;;4.15;2.45;;;23.30;99.90;;;;;;6734418;88;20230;-77
2021/09/24 09:45:51;;;;;;;5.37;2.75;;;24.30;99.90;;;;;;6735386;88;20250;-78
2021/09/24 09:55:55;;;;;;;4.97;2.47;;;23.70;99.90;;;;;;6733670;88;20177;-78
2021/09/24 10:05:55;;;;;;;4.07;2.50;;;23.30;99.90;;;;;;6736505;88;20200;-77
2021/09/24 10:15:56;;;;;;;3.25;2.05;;;22.80;99.90;;;;;;6733300;88;20250;-78
2021/09/24 10:25:59;;;;;;;5.95;2.62;;;22.90;99.90;;;;;;6735648;88;20305;-77
2021/09/24 10:36:00;;;;;;;6.23;2.20;;;23.10;99.90;;;;;;6733977;88;20189;-77
2021/09/24 10:46:01;;;;;;;5.07;2.08;;;24.80;99.90;;;;;;6735828;88;20209;-77
2021/09/24 10:56:04;;;;;;;3.10;1.70;;;24.90;99.90;;;;;;6730223;88;20188;-78
2021/09/24 11:06:07;;;;;;;2.97;2.03;;;23.80;99.90;;;;;;6730761;88;20957;-78
2021/09/24 11:16:13;;;;;;;2.27;1.60;;;24.40;99.90;;;;;;6736035;88;20227;-79
2021/09/24 11:26:34;;;;;;;4.40;1.77;;;26.00;99.90;;;;;;6752215;76;20228;-79
2021/09/24 11:36:57;;;;;;;2.37;1.37;;;27.50;98.70;;;;;;6708783;88;20257;-76
2021/09/24 11:46:57;;;;;;;3.63;1.10;;;25.30;99.80;;;;;;6689523;88;20199;-78
2021/09/24 11:56:58;;;;;;;2.50;1.10;;;24.70;99.90;;;;;;6686008;88;20245;-77
2021/09/24 12:06:58;;;;;;;2.92;1.95;;;24.20;99.90;;;;;;6682146;88;20202;-77
2021/09/24 12:16:59;;;;;;;4.28;2.40;;;23.30;99.90;;;;;;6682625;88;20336;-78
2021/09/24 12:27:08;;;;;;;4.20;2.22;;;22.60;99.90;;;;;;6701508;88;20200;-77
2021/09/24 12:37:11;;;;;;;2.87;1.60;;;22.90;99.90;;;;;;6707831;88;20788;-77
2021/09/24 12:47:28;;;;;;;3.43;1.80;;;23.20;99.90;;;;;;6703904;88;20195;-77
2021/09/24 12:57:29;;;;;;;3.47;1.77;;;23.50;99.90;;;;;;6699839;88;20201;-79
2021/09/24 13:07:30;;;;;;;3.80;1.95;;;24.90;99.90;;;;;;6699646;88;20299;-77
2021/09/24 13:17:31;;;;;;;4.22;1.83;;;25.70;99.20;;;;;;6700494;88;20190;-77
2021/09/24 13:27:32;;;;;;;3.28;1.60;;;24.40;99.90;;;;;;6699271;88;20244;-78
2021/09/24 13:37:32;;;;;;;5.35;1.60;;;23.30;99.90;;;;;;6699174;88;20313;-77
2021/09/24 13:47:33;;;;;;;4.75;1.50;;;22.90;99.90;;;;;;6698611;88;20205;-77
2021/09/24 13:57:34;;;;;;;3.50;1.48;;;22.30;99.90;;;;;;6699321;88;20311;-78
2021/09/24 14:07:35;;;;;;;3.30;1.42;;;22.00;99.90;;;;;;6699885;88;20223;-77
2021/09/24 14:17:36;;;;;;;3.75;1.40;;;21.90;99.90;;;;;;6699114;88;20303;-77
2021/09/24 14:27:36;;;;;;;3.62;1.50;;;21.80;99.90;;;;;;6699169;88;20712;-78
2021/09/24 14:37:37;;;;;;;4.65;1.50;;;21.50;99.90;;;;;;6698500;88;20322;-77
2021/09/24 14:47:38;;;;;;;3.63;1.70;;;21.50;99.90;;;;;;6698597;88;20174;-77
2021/09/24 14:57:38;;;;;;;3.65;1.37;;;21.40;99.90;;;;;;6700899;88;20529;-77
2021/09/24 15:07:39;;;;;;;3.03;1.60;;;21.30;99.90;;;;;;6693704;88;20243;-77
2021/09/24 15:17:40;;;;;;;2.17;1.33;;;21.30;99.90;;;;;;6697701;88;20225;-77
2021/09/24 15:27:40;;;;;;;2.15;1.30;;;21.10;99.90;;;;;;6695685;88;20700;-77
2021/09/24 15:37:43;;;;;;;2.80;1.40;;;21.20;99.90;;;;;;6705190;88;20336;-79
2021/09/24 15:47:43;;;;;;;4.18;1.37;;;21.30;99.90;;;;;;6708809;88;20203;-77
2021/09/24 15:57:44;;;;;;;2.53;1.30;;;21.30;99.90;;;;;;6711155;88;20494;-79
2021/09/24 16:07:46;;;;;;;1.85;1.20;;;21.30;99.90;;;;;;6704035;88;20203;-80
2021/09/24 16:17:47;;;;;;;3.50;1.20;;;21.10;99.90;;;;;;6698534;88;20201;-77
2021/09/24 16:27:49;;;;;;;7.68;1.33;;;20.80;99.90;;;;;;6694875;88;20196;-77
2021/09/24 16:37:49;;;;;;;3.58;1.30;;;20.90;99.90;;;;;;6689405;88;20215;-78
2021/09/24 16:47:50;;;;;;;4.45;2.53;;;21.00;99.90;;;;;;6712079;88;20229;-76
2021/09/24 16:57:50;;;;;;;4.28;1.50;;;20.70;99.90;;;;;;6685959;88;20830;-76
2021/09/24 17:07:51;;;;;;;2.70;1.25;;;20.20;99.90;;;;;;6694321;88;20305;-75
2021/09/24 17:17:52;;;;;;;4.18;1.60;;;20.10;99.90;;;;;;6696497;88;20218;-77
2021/09/24 17:38:55;;;;;;;3.10;1.37;;;19.40;99.90;;;;;;6782214;87;20211;-80
2021/09/24 17:48:56;;;;;;;2.65;1.45;;;19.30;99.90;;;;;;6776080;87;20301;-81
2021/09/24 17:58:56;;;;;;;3.12;1.70;;;19.10;99.90;;;;;;6775684;87;20764;-80
2021/09/24 18:08:58;;;;;;;2.78;1.48;;;19.10;99.90;;;;;;6775243;87;20192;-81
2021/09/24 18:18:58;;;;;;;4.07;1.65;;;19.00;99.90;;;;;;6774941;88;20207;-80
2021/09/24 18:28:59;;;;;;;5.00;1.70;;;19.00;99.90;;;;;;6775916;87;20278;-85
2021/09/24 18:38:59;;;;;;;2.85;1.27;;;19.10;99.90;;;;;;6775984;87;20200;-81
2021/09/24 18:49:00;;;;;;;2.90;1.40;;;19.10;99.90;;;;;;6775712;87;20204;-81
2021/09/24 18:59:00;;;;;;;2.90;1.20;;;19.20;99.90;;;;;;6775152;88;20699;-80
2021/09/24 19:09:01;;;;;;;3.05;1.20;;;19.00;99.90;;;;;;6779246;87;20284;-81
2021/09/24 19:19:02;;;;;;;1.60;1.00;;;19.00;99.90;;;;;;6779197;87;20167;-80
2021/09/24 19:29:03;;;;;;;2.47;0.90;;;19.00;99.90;;;;;;6778704;87;20180;-80
2021/09/24 19:39:04;;;;;;;2.03;1.17;;;19.10;99.90;;;;;;6777717;87;20180;-81
2021/09/24 19:49:05;;;;;;;2.17;1.02;;;19.00;99.90;;;;;;6776007;87;20766;-82
2021/09/24 19:59:06;;;;;;;2.42;0.98;;;18.80;99.90;;;;;;6775574;87;20228;-83
2021/09/24 20:09:07;;;;;;;3.05;1.00;;;18.60;99.90;;;;;;6773697;87;20199;-82
2021/09/24 20:19:08;;;;;;;1.77;0.93;;;18.60;99.90;;;;;;6768390;87;20845;-81
2021/09/24 20:29:08;;;;;;;4.20;0.80;;;18.50;99.90;;;;;;6769574;87;20597;-81
2021/09/24 20:39:09;;;;;;;1.50;0.90;;;18.60;99.90;;;;;;6772664;87;20228;-80
2021/09/24 20:49:10;;;;;;;2.00;0.90;;;18.50;99.90;;;;;;6771482;87;20199;-80
2021/09/24 20:59:10;;;;;;;2.12;0.80;;;18.50;99.90;;;;;;6769688;87;20512;-80
2021/09/24 21:09:11;;;;;;;1.85;0.90;;;18.20;99.90;;;;;;6768828;88;20335;-80
2021/09/24 21:19:11;;;;;;;2.25;1.08;;;18.10;99.90;;;;;;6767945;88;20221;-79
2021/09/24 21:29:12;;;;;;;1.83;0.80;;;17.80;99.90;;;;;;6768393;87;20349;-80
2021/09/24 21:39:12;;;;;;;2.03;0.93;;;17.80;99.90;;;;;;6768596;87;20204;-80
2021/09/24 21:49:13;;;;;;;2.17;1.05;;;17.70;99.90;;;;;;6768775;88;20217;-80
2021/09/24 21:59:13;;;;;;;1.55;0.93;;;17.70;99.90;;;;;;6770261;87;20203;-80
2021/09/24 22:09:14;;;;;;;1.70;1.00;;;17.70;99.90;;;;;;6761031;88;20249;-81
2021/09/24 22:19:15;;;;;;;2.10;0.80;;;17.60;99.90;;;;;;6765818;88;20206;-80
2021/09/24 22:29:15;;;;;;;1.42;0.80;;;17.60;99.90;;;;;;6755891;88;20205;-80
2021/09/24 22:39:16;;;;;;;1.58;0.88;;;17.40;99.90;;;;;;6768787;87;20231;-80
2021/09/24 22:49:17;;;;;;;1.45;0.80;;;17.20;99.90;;;;;;6768584;88;20227;-80
2021/09/24 22:59:18;;;;;;;1.90;1.00;;;17.10;99.90;;;;;;6758692;87;20214;-80
2021/09/24 23:09:18;;;;;;;1.58;1.00;;;17.00;99.90;;;;;;6768270;88;20226;-80
2021/09/24 23:19:19;;;;;;;1.90;1.12;;;17.00;99.90;;;;;;6767674;88;20218;-80
2021/09/24 23:29:19;;;;;;;1.70;1.23;;;16.80;99.90;;;;;;6753507;77;20915;-74
2021/09/24 23:39:20;;;;;;;3.22;1.30;;;16.60;99.90;;;;;;6745270;88;20180;-76
2021/09/24 23:49:20;;;;;;;1.90;1.10;;;16.60;99.90;;;;;;6732480;88;20250;-75
2021/09/24 23:59:22;;;;;;;3.50;1.30;;;16.60;99.90;;;;;;6731869;88;20651;-75
